Oyo, Nigeria
Current Conditions -  °F | °C
As of 2:00 AM on Saturday 29 Nov 2014 (Local Time) from DBBB Reporting Station
NA  
Wind Chill: 81°   Ceiling: NA
Heat Index: 88°   Visibility: NA
Dew Point: 79°   Wind: 8mph
Humidity: 94%   Direction: 230°SW
Pressure: 29.83"   Gusts: NA
Location:  7.83°N, 3.92°E
Report Text: DBBB 290100Z AUTO 23007KT 27/26 Q1010
Loading
Personal Weather Stations






























Interactive Weather Map New forecast layout! Learn more

10-Day Weather Forecast

Advertisements
Track Severe Weather on mobile